Time;durP1;ratioP1;P1;durP2;ratioP2;P2;SDS_P1;SDS_P2;PMS_P1;PMS_P2;Temp;Humidity;BMP_temperature;BMP_pressure;BME280_temperature;BME280_humidity;BME280_pressure;Samples;Min_cycle;Max_cycle;Signal;HPM_P1;HPM_P2
2022/08/02 00:02:18;;;;;;;10.98;3.85;;;12.30;99.90;;;;;;5058636;28;20025;-73
2022/08/02 00:04:45;;;;;;;7.68;3.10;;;12.30;99.90;;;;;;5061615;28;20106;-72
2022/08/02 00:07:11;;;;;;;7.43;3.33;;;12.30;99.90;;;;;;5064580;28;20429;-73
2022/08/02 00:09:37;;;;;;;9.23;3.60;;;12.30;99.90;;;;;;5063490;28;20033;-72
2022/08/02 00:12:03;;;;;;;8.60;3.67;;;12.30;99.90;;;;;;5063496;28;20098;-73
2022/08/02 00:14:29;;;;;;;7.55;4.03;;;12.30;99.90;;;;;;5063419;28;20063;-72
2022/08/02 00:16:55;;;;;;;8.65;3.63;;;12.30;99.90;;;;;;5062198;28;20414;-72
2022/08/02 00:19:21;;;;;;;10.35;4.03;;;12.30;99.90;;;;;;5042672;28;20499;-72
2022/08/02 00:21:47;;;;;;;8.65;3.72;;;12.30;99.90;;;;;;5063185;28;20128;-74
2022/08/02 00:24:12;;;;;;;11.30;3.95;;;12.30;99.90;;;;;;5048534;28;20036;-72
2022/08/02 00:26:38;;;;;;;10.65;4.10;;;12.30;99.90;;;;;;5038443;28;20073;-72
2022/08/02 00:29:04;;;;;;;6.85;3.78;;;12.30;99.90;;;;;;5049093;28;20080;-73
2022/08/02 00:31:30;;;;;;;7.50;3.60;;;12.30;99.90;;;;;;5051773;28;20100;-73
2022/08/02 00:33:55;;;;;;;7.00;4.35;;;12.30;99.90;;;;;;5057611;28;20091;-73
2022/08/02 00:36:21;;;;;;;10.48;4.78;;;12.30;99.90;;;;;;5064584;28;20046;-73
2022/08/02 00:38:47;;;;;;;10.32;4.57;;;12.30;99.90;;;;;;5051911;28;20552;-71
2022/08/02 00:41:16;;;;;;;11.73;4.93;;;12.20;99.90;;;;;;5061253;28;20072;-71
2022/08/02 00:43:43;;;;;;;10.70;4.50;;;12.20;99.90;;;;;;5036378;28;20110;-71
2022/08/02 00:46:08;;;;;;;11.40;4.47;;;12.20;99.90;;;;;;5059072;28;20041;-71
2022/08/02 00:48:34;;;;;;;7.28;4.00;;;12.20;99.90;;;;;;5044510;28;20041;-71
2022/08/02 00:51:01;;;;;;;7.80;4.18;;;12.20;99.90;;;;;;5041881;28;20057;-71
2022/08/02 00:53:27;;;;;;;11.35;5.35;;;12.10;99.90;;;;;;5049311;28;20068;-71
2022/08/02 00:55:53;;;;;;;7.85;4.40;;;12.10;99.90;;;;;;5062562;28;20105;-72
2022/08/02 00:58:19;;;;;;;11.30;4.45;;;12.10;99.90;;;;;;5060569;28;20045;-72
2022/08/02 01:00:45;;;;;;;9.52;3.83;;;12.10;99.90;;;;;;5060963;28;20033;-72
2022/08/02 01:03:10;;;;;;;10.15;4.35;;;12.10;99.90;;;;;;5049682;28;20187;-72
2022/08/02 01:05:36;;;;;;;10.23;3.80;;;12.00;99.90;;;;;;5038879;28;20048;-71
2022/08/02 01:08:02;;;;;;;10.70;4.63;;;12.00;99.90;;;;;;5059815;28;20511;-71
2022/08/02 01:10:28;;;;;;;10.40;4.80;;;12.00;99.90;;;;;;5059219;28;20036;-71
2022/08/02 01:12:53;;;;;;;8.38;4.25;;;11.90;99.90;;;;;;5053357;28;20094;-72
2022/08/02 01:15:20;;;;;;;12.25;4.60;;;11.90;99.90;;;;;;5043980;28;20040;-72
2022/08/02 01:18:12;;;;;;;15.85;5.00;;;11.90;99.90;;;;;;5042437;28;20037;-71
2022/08/02 01:21:03;;;;;;;7.50;4.35;;;11.90;99.90;;;;;;5040251;28;20452;-71
2022/08/02 01:23:50;;;;;;;10.88;5.25;;;11.80;99.90;;;;;;5047796;28;20045;-71
2022/08/02 01:26:34;;;;;;;12.05;4.85;;;11.80;99.90;;;;;;5045149;28;20037;-72
2022/08/02 01:29:26;;;;;;;7.95;4.30;;;11.80;99.90;;;;;;5058297;28;20079;-72
2022/08/02 01:32:08;;;;;;;9.05;3.92;;;11.80;99.90;;;;;;5059051;28;20063;-71
2022/08/02 01:35:03;;;;;;;11.13;5.30;;;11.70;99.90;;;;;;5048605;28;20052;-71
2022/08/02 01:37:36;;;;;;;13.05;4.95;;;11.70;99.90;;;;;;5063041;28;20488;-71
2022/08/02 01:40:16;;;;;;;7.50;4.00;;;11.70;99.90;;;;;;5058399;28;20051;-71
2022/08/02 01:42:48;;;;;;;10.20;4.15;;;11.70;99.90;;;;;;5058884;28;20040;-71
2022/08/02 01:45:14;;;;;;;15.40;4.43;;;11.70;99.90;;;;;;5040077;28;20056;-71
2022/08/02 01:47:43;;;;;;;9.73;4.38;;;11.70;99.90;;;;;;5061412;28;20040;-71
2022/08/02 01:50:15;;;;;;;6.13;4.32;;;11.70;99.90;;;;;;5045096;28;20254;-71
2022/08/02 01:52:50;;;;;;;10.27;4.72;;;11.70;99.90;;;;;;5058862;28;20136;-71
2022/08/02 01:55:22;;;;;;;12.68;5.00;;;11.70;99.90;;;;;;5061937;28;20048;-72
2022/08/02 01:57:51;;;;;;;10.25;4.30;;;11.60;99.90;;;;;;5037909;28;20044;-71
2022/08/02 02:00:18;;;;;;;10.75;4.05;;;11.70;99.90;;;;;;5050203;28;20041;-72
2022/08/02 02:02:46;;;;;;;10.40;4.57;;;11.60;99.90;;;;;;5056696;28;20134;-72
2022/08/02 02:05:19;;;;;;;10.65;5.22;;;11.60;99.90;;;;;;5049237;28;20477;-71
2022/08/02 02:07:48;;;;;;;8.43;4.55;;;11.60;99.90;;;;;;5059337;28;20052;-71
2022/08/02 02:10:17;;;;;;;11.25;4.57;;;11.60;99.90;;;;;;5041250;28;20072;-71
2022/08/02 02:12:45;;;;;;;9.73;4.82;;;11.50;99.90;;;;;;5062422;28;20087;-71
2022/08/02 02:15:12;;;;;;;11.35;4.78;;;11.50;99.90;;;;;;5044634;28;20073;-71
2022/08/02 02:17:41;;;;;;;10.82;5.00;;;11.50;99.90;;;;;;5039562;28;20128;-71
2022/08/02 02:20:12;;;;;;;8.80;4.45;;;11.50;99.90;;;;;;5058201;28;20040;-71
2022/08/02 02:22:38;;;;;;;14.10;4.88;;;11.50;99.90;;;;;;5053327;28;20127;-72
2022/08/02 02:25:04;;;;;;;11.57;5.28;;;11.50;99.90;;;;;;5066019;28;20132;-71
2022/08/02 02:27:30;;;;;;;11.13;4.90;;;11.50;99.90;;;;;;5051604;28;20037;-72
2022/08/02 02:29:57;;;;;;;10.40;5.05;;;11.50;99.90;;;;;;5048873;28;20053;-71
2022/08/02 02:32:26;;;;;;;11.77;5.75;;;11.50;99.90;;;;;;5066328;28;20350;-71
2022/08/02 02:34:52;;;;;;;13.70;5.20;;;11.50;99.90;;;;;;5065793;28;20728;-72
2022/08/02 02:37:22;;;;;;;11.77;4.63;;;11.40;99.90;;;;;;5063901;28;20045;-72
2022/08/02 02:39:53;;;;;;;11.38;5.38;;;11.50;99.90;;;;;;5049424;28;20053;-72
2022/08/02 02:42:25;;;;;;;13.85;5.07;;;11.40;99.90;;;;;;5046932;28;20041;-72
2022/08/02 02:44:52;;;;;;;16.35;5.28;;;11.40;99.90;;;;;;5058326;28;20144;-72
2022/08/02 02:47:19;;;;;;;12.88;4.95;;;11.40;99.90;;;;;;5055725;28;20091;-72
2022/08/02 02:49:48;;;;;;;11.05;4.65;;;11.40;99.90;;;;;;5060196;28;20045;-72
2022/08/02 02:52:16;;;;;;;12.57;5.20;;;11.40;99.90;;;;;;5068505;28;20443;-71
2022/08/02 02:54:45;;;;;;;10.75;5.70;;;11.40;99.90;;;;;;5060430;28;20380;-72
2022/08/02 02:57:11;;;;;;;10.20;4.22;;;11.40;99.90;;;;;;5062599;28;20041;-72
2022/08/02 02:59:38;;;;;;;9.40;4.63;;;11.40;99.90;;;;;;5062953;28;20083;-72
2022/08/02 03:02:05;;;;;;;10.68;4.47;;;11.40;99.90;;;;;;5048847;28;20227;-72
2022/08/02 03:04:31;;;;;;;10.35;5.28;;;11.40;99.90;;;;;;5065521;28;20196;-72
2022/08/02 03:06:58;;;;;;;8.77;4.60;;;11.40;99.90;;;;;;5061491;28;20056;-72
2022/08/02 03:09:24;;;;;;;9.68;4.68;;;11.40;99.90;;;;;;5059956;28;20399;-72
2022/08/02 03:11:51;;;;;;;16.60;4.70;;;11.40;99.90;;;;;;5051879;28;20057;-72
2022/08/02 03:14:17;;;;;;;15.02;5.00;;;11.40;99.90;;;;;;5037266;28;20056;-71
2022/08/02 03:16:46;;;;;;;8.75;4.55;;;11.50;99.90;;;;;;5069111;28;20052;-72
2022/08/02 03:19:12;;;;;;;11.23;5.45;;;11.50;99.90;;;;;;5063480;28;20037;-71
2022/08/02 03:21:38;;;;;;;10.13;4.35;;;11.50;99.90;;;;;;5067008;28;20569;-71
2022/08/02 03:24:04;;;;;;;10.55;4.68;;;11.50;99.90;;;;;;5051319;28;20033;-71
2022/08/02 03:26:30;;;;;;;11.07;5.47;;;11.50;99.90;;;;;;5062224;28;20099;-71
2022/08/02 03:28:56;;;;;;;10.43;5.35;;;11.50;99.90;;;;;;5060471;28;20524;-71
2022/08/02 03:31:21;;;;;;;11.55;4.25;;;11.50;99.90;;;;;;5062316;28;20404;-71
2022/08/02 03:33:48;;;;;;;14.32;5.00;;;11.50;99.90;;;;;;5057202;28;20048;-71
2022/08/02 03:36:18;;;;;;;13.90;5.50;;;11.40;99.90;;;;;;5061852;28;20114;-71
2022/08/02 03:38:44;;;;;;;10.32;4.85;;;11.40;99.90;;;;;;5060138;28;20045;-72
2022/08/02 03:41:14;;;;;;;9.82;4.85;;;11.40;99.90;;;;;;5068409;28;20055;-71
2022/08/02 03:43:42;;;;;;;12.30;5.20;;;11.40;99.90;;;;;;5062160;28;20476;-72
2022/08/02 03:46:08;;;;;;;12.43;5.47;;;11.40;99.90;;;;;;5048452;28;20048;-72
2022/08/02 03:48:36;;;;;;;16.13;5.75;;;11.50;99.90;;;;;;5063129;28;20041;-72
2022/08/02 03:51:02;;;;;;;10.55;5.32;;;11.40;99.90;;;;;;5060745;28;20044;-72
2022/08/02 03:53:28;;;;;;;9.73;5.88;;;11.50;99.90;;;;;;5064951;28;20048;-71
2022/08/02 03:55:55;;;;;;;11.32;5.72;;;11.50;99.90;;;;;;5044089;28;20053;-72
2022/08/02 03:58:22;;;;;;;13.55;6.10;;;11.50;99.90;;;;;;5056533;28;20433;-72
2022/08/02 04:00:50;;;;;;;17.35;5.90;;;11.50;99.90;;;;;;5039900;28;20069;-71
2022/08/02 04:03:16;;;;;;;12.77;6.18;;;11.50;99.90;;;;;;5062219;28;20040;-72
2022/08/02 04:05:42;;;;;;;10.75;6.20;;;11.60;99.90;;;;;;5057219;28;20044;-71
2022/08/02 04:08:08;;;;;;;10.75;5.93;;;11.60;99.90;;;;;;5063035;28;20029;-72
2022/08/02 04:13:19;;;;;;;12.25;6.13;;;11.60;99.90;;;;;;5063312;28;20570;-72
2022/08/02 04:15:48;;;;;;;12.45;6.20;;;11.60;99.90;;;;;;5043954;28;20052;-71
2022/08/02 04:18:16;;;;;;;11.88;6.60;;;11.60;99.90;;;;;;5062514;28;20067;-72
2022/08/02 04:20:44;;;;;;;13.00;6.63;;;11.70;99.90;;;;;;5057165;28;20688;-72
2022/08/02 04:23:13;;;;;;;13.25;7.32;;;11.70;99.90;;;;;;5043374;28;20065;-72
2022/08/02 04:25:40;;;;;;;15.77;7.13;;;11.80;99.90;;;;;;5056967;28;20049;-71
2022/08/02 04:28:07;;;;;;;10.65;6.55;;;11.90;99.90;;;;;;5060487;28;20072;-72
2022/08/02 04:30:33;;;;;;;9.73;6.65;;;11.90;99.90;;;;;;5058553;28;20045;-72
2022/08/02 04:33:00;;;;;;;10.50;6.72;;;11.90;99.90;;;;;;5064260;28;20064;-72
2022/08/02 04:35:26;;;;;;;13.02;6.80;;;12.00;99.90;;;;;;5061511;28;20044;-72
2022/08/02 04:37:52;;;;;;;9.55;6.80;;;12.00;99.90;;;;;;5044711;28;20125;-72
2022/08/02 04:40:18;;;;;;;12.45;6.55;;;12.00;99.90;;;;;;5057150;28;20362;-75
2022/08/02 04:42:43;;;;;;;10.50;5.90;;;12.00;99.90;;;;;;5056751;28;20040;-71
2022/08/02 04:45:10;;;;;;;13.15;6.32;;;12.10;99.90;;;;;;5044899;28;20479;-72
2022/08/02 04:47:36;;;;;;;11.48;6.25;;;12.10;99.90;;;;;;5054268;28;20098;-72
2022/08/02 04:50:02;;;;;;;14.70;6.82;;;12.20;99.90;;;;;;5053779;28;20036;-72
2022/08/02 04:52:28;;;;;;;13.98;6.35;;;12.30;99.90;;;;;;5057088;28;20053;-71
2022/08/02 04:54:54;;;;;;;12.48;6.80;;;12.30;99.90;;;;;;5043664;28;20043;-72
2022/08/02 05:00:06;;;;;;;13.90;6.78;;;12.50;99.90;;;;;;5063589;28;20051;-71
2022/08/02 05:02:32;;;;;;;13.45;6.50;;;12.60;99.90;;;;;;5043869;28;20567;-72
2022/08/02 05:04:58;;;;;;;16.60;6.82;;;12.70;99.90;;;;;;5041867;28;20041;-72
2022/08/02 05:07:23;;;;;;;12.52;6.95;;;12.80;99.90;;;;;;5057955;28;20372;-72
2022/08/02 05:09:49;;;;;;;10.93;6.68;;;12.90;99.90;;;;;;5043210;28;20048;-72
2022/08/02 05:12:15;;;;;;;11.27;6.03;;;13.00;99.90;;;;;;5058460;28;20041;-72
2022/08/02 05:14:40;;;;;;;13.63;6.95;;;13.10;99.90;;;;;;5059372;28;20045;-71
2022/08/02 05:17:06;;;;;;;10.85;6.60;;;13.30;99.90;;;;;;5061599;28;20478;-71
2022/08/02 05:19:32;;;;;;;12.23;6.55;;;13.60;99.90;;;;;;5047271;28;20040;-71
2022/08/02 05:21:58;;;;;;;10.38;5.93;;;13.70;99.90;;;;;;5061051;28;20496;-72
2022/08/02 05:24:23;;;;;;;10.02;5.85;;;13.80;99.90;;;;;;5062817;28;20192;-72
2022/08/02 05:26:49;;;;;;;15.45;6.72;;;13.80;99.90;;;;;;5059473;28;20037;-72
2022/08/02 05:29:16;;;;;;;9.63;6.20;;;13.90;99.90;;;;;;5057897;28;20040;-72
2022/08/02 05:31:41;;;;;;;12.55;5.40;;;14.00;99.90;;;;;;5058210;28;20033;-72
2022/08/02 05:34:07;;;;;;;12.60;5.70;;;14.10;99.90;;;;;;5049398;28;20044;-72
2022/08/02 05:36:33;;;;;;;9.82;5.53;;;14.20;99.90;;;;;;5049668;28;20045;-72
2022/08/02 05:38:58;;;;;;;9.45;5.05;;;14.30;99.90;;;;;;5051722;28;20044;-72
2022/08/02 05:41:24;;;;;;;8.38;5.43;;;14.40;99.90;;;;;;5058566;28;20532;-72
2022/08/02 05:43:50;;;;;;;7.07;5.38;;;14.60;99.90;;;;;;5056665;28;20048;-72
2022/08/02 05:46:15;;;;;;;9.30;6.07;;;14.70;99.90;;;;;;5060214;28;20037;-72
2022/08/02 05:48:43;;;;;;;8.10;5.25;;;14.80;99.90;;;;;;5062147;28;20131;-72
2022/08/02 05:51:15;;;;;;;9.20;5.10;;;14.90;99.90;;;;;;5062689;28;20053;-72
2022/08/02 05:53:51;;;;;;;11.15;5.57;;;15.00;99.90;;;;;;5054432;28;20044;-72
2022/08/02 05:56:37;;;;;;;7.28;5.50;;;15.10;99.90;;;;;;5050032;28;20446;-72
2022/08/02 05:59:10;;;;;;;14.98;5.70;;;15.30;99.90;;;;;;5052694;28;20048;-72
2022/08/02 06:01:39;;;;;;;11.77;5.10;;;15.40;99.90;;;;;;5051863;28;20060;-72
2022/08/02 06:04:12;;;;;;;9.25;5.10;;;15.50;99.90;;;;;;5058850;28;20120;-73
2022/08/02 06:06:43;;;;;;;7.47;4.27;;;15.70;99.90;;;;;;5063730;28;20045;-73
2022/08/02 06:09:14;;;;;;;7.45;3.78;;;15.80;99.90;;;;;;5066706;28;20762;-73
2022/08/02 06:11:44;;;;;;;10.82;4.55;;;16.00;99.90;;;;;;5066740;28;20040;-73
2022/08/02 06:14:11;;;;;;;7.05;3.90;;;16.20;99.90;;;;;;5064801;28;20036;-73
2022/08/02 06:16:38;;;;;;;10.30;4.25;;;16.30;99.90;;;;;;5046916;28;20183;-73
2022/08/02 06:19:04;;;;;;;8.90;4.25;;;16.40;99.90;;;;;;5061208;28;20044;-73
2022/08/02 06:21:31;;;;;;;8.68;3.53;;;16.60;99.90;;;;;;5061495;28;20040;-73
2022/08/02 06:23:58;;;;;;;7.13;4.03;;;16.70;99.90;;;;;;5058299;28;20485;-73
2022/08/02 06:26:25;;;;;;;9.27;3.65;;;16.80;99.90;;;;;;5062464;28;20039;-73
2022/08/02 06:28:56;;;;;;;8.73;4.10;;;17.00;99.90;;;;;;5061167;28;20493;-73
2022/08/02 06:31:22;;;;;;;8.70;4.55;;;17.10;99.90;;;;;;5043833;28;20033;-73
2022/08/02 06:33:48;;;;;;;11.50;3.95;;;17.30;99.90;;;;;;5061162;28;20123;-73
2022/08/02 06:36:26;;;;;;;6.22;3.05;;;17.50;99.90;;;;;;5064595;28;20052;-73
2022/08/02 06:39:10;;;;;;;8.40;3.72;;;17.60;99.90;;;;;;5046715;28;20048;-73
2022/08/02 06:41:41;;;;;;;8.55;3.58;;;17.80;99.90;;;;;;5045178;28;20048;-73
2022/08/02 06:44:08;;;;;;;8.52;3.67;;;17.90;99.90;;;;;;5062534;28;20049;-73
2022/08/02 06:46:34;;;;;;;9.40;3.55;;;18.10;99.90;;;;;;5038637;28;20056;-73
2022/08/02 06:49:01;;;;;;;11.45;4.15;;;18.20;99.90;;;;;;5057408;28;20373;-73
2022/08/02 06:51:27;;;;;;;9.80;3.35;;;18.30;99.90;;;;;;5056065;28;20056;-73
2022/08/02 06:53:53;;;;;;;8.30;3.00;;;18.30;99.90;;;;;;5060345;28;20048;-73
2022/08/02 06:56:19;;;;;;;8.32;2.92;;;18.40;99.90;;;;;;5052115;28;20057;-73
2022/08/02 06:58:45;;;;;;;7.03;2.75;;;18.40;99.90;;;;;;5064340;28;20045;-73
2022/08/02 07:01:11;;;;;;;6.28;2.92;;;18.50;99.90;;;;;;5060621;28;20037;-73
2022/08/02 07:03:39;;;;;;;11.27;2.97;;;18.60;99.90;;;;;;5045773;28;20136;-73
2022/08/02 07:06:07;;;;;;;9.45;2.90;;;18.70;99.90;;;;;;5066198;28;20036;-73
2022/08/02 07:08:36;;;;;;;7.10;2.60;;;18.80;99.90;;;;;;5064259;28;20090;-73
2022/08/02 07:11:06;;;;;;;9.90;2.78;;;19.00;99.90;;;;;;5056943;28;20134;-73
2022/08/02 07:13:31;;;;;;;10.23;2.58;;;19.20;99.90;;;;;;5058212;28;20124;-73
2022/08/02 07:15:57;;;;;;;8.52;2.38;;;19.30;99.90;;;;;;5055884;28;20120;-73
2022/08/02 07:18:23;;;;;;;5.03;2.00;;;19.50;99.90;;;;;;5062126;28;20080;-73
2022/08/02 07:20:49;;;;;;;5.35;2.22;;;19.70;99.90;;;;;;5046821;28;20060;-73
2022/08/02 07:23:15;;;;;;;6.68;2.40;;;19.80;99.90;;;;;;5064849;28;20051;-73
2022/08/02 07:25:42;;;;;;;7.15;1.95;;;19.90;99.90;;;;;;5062492;28;20033;-73
2022/08/02 07:28:11;;;;;;;6.40;2.20;;;19.80;99.90;;;;;;5062086;28;20041;-73
2022/08/02 07:30:37;;;;;;;7.00;1.98;;;19.70;99.90;;;;;;5055644;28;20037;-73
2022/08/02 07:33:03;;;;;;;5.45;1.90;;;19.70;99.90;;;;;;5057986;28;20365;-73
2022/08/02 07:35:29;;;;;;;6.47;1.85;;;19.70;99.90;;;;;;5053240;28;20094;-73
2022/08/02 07:37:55;;;;;;;7.55;2.28;;;19.80;99.90;;;;;;5055797;28;20041;-73
2022/08/02 07:40:22;;;;;;;6.63;2.08;;;20.00;99.90;;;;;;5051280;28;20446;-73
2022/08/02 07:42:54;;;;;;;4.68;1.98;;;20.30;99.90;;;;;;5061201;28;20041;-73
2022/08/02 07:45:20;;;;;;;4.90;1.80;;;20.50;99.90;;;;;;5044759;28;20127;-73
2022/08/02 07:47:47;;;;;;;8.05;2.20;;;20.80;99.90;;;;;;5060878;28;20076;-73
2022/08/02 07:50:15;;;;;;;7.30;2.20;;;21.10;99.90;;;;;;5063557;28;20078;-73
2022/08/02 07:52:42;;;;;;;6.07;1.92;;;21.30;99.90;;;;;;5061432;28;20053;-73
2022/08/02 07:55:09;;;;;;;5.28;1.60;;;21.50;99.90;;;;;;5045867;28;20045;-73
2022/08/02 07:57:35;;;;;;;6.35;1.73;;;21.60;99.90;;;;;;5061793;28;20041;-73
2022/08/02 08:00:02;;;;;;;6.55;2.00;;;21.90;99.90;;;;;;5049609;28;20053;-73
2022/08/02 08:02:27;;;;;;;6.00;1.50;;;22.10;99.90;;;;;;5059437;28;20158;-73
2022/08/02 08:04:53;;;;;;;5.88;1.58;;;22.30;99.90;;;;;;5059757;28;20072;-73
2022/08/02 08:07:19;;;;;;;5.40;1.83;;;22.40;99.90;;;;;;5060978;28;20049;-72
2022/08/02 08:09:46;;;;;;;12.25;1.70;;;22.50;99.90;;;;;;5060402;28;20082;-73
2022/08/02 08:12:14;;;;;;;6.38;1.80;;;22.70;98.70;;;;;;5061702;28;20511;-73
2022/08/02 08:14:39;;;;;;;6.68;1.75;;;22.90;98.70;;;;;;5060654;28;20560;-73
2022/08/02 08:17:05;;;;;;;6.95;1.27;;;23.30;97.50;;;;;;5059459;28;20123;-73
2022/08/02 08:19:31;;;;;;;5.05;1.58;;;23.50;95.60;;;;;;5058413;28;20123;-73
2022/08/02 08:21:59;;;;;;;6.00;1.35;;;23.60;96.20;;;;;;5062495;28;20048;-73
2022/08/02 08:24:28;;;;;;;4.28;1.38;;;24.00;96.50;;;;;;5052100;28;20151;-73
2022/08/02 08:26:55;;;;;;;3.40;1.10;;;24.50;95.60;;;;;;5056029;28;20122;-73
2022/08/02 08:29:21;;;;;;;3.08;0.95;;;24.70;94.20;;;;;;5059712;28;20120;-73
2022/08/02 08:31:47;;;;;;;4.93;1.20;;;25.00;94.40;;;;;;5059971;28;20049;-73
2022/08/02 08:34:13;;;;;;;3.95;1.30;;;25.30;90.60;;;;;;5057856;28;20037;-74
2022/08/02 08:36:39;;;;;;;3.25;0.98;;;25.50;90.00;;;;;;5067538;28;20392;-74
2022/08/02 08:39:05;;;;;;;3.05;1.10;;;25.60;85.00;;;;;;5063120;28;20044;-74
2022/08/02 08:41:31;;;;;;;5.13;1.20;;;25.60;83.90;;;;;;5062733;28;20461;-73
2022/08/02 08:43:58;;;;;;;5.28;1.05;;;25.90;79.90;;;;;;5065266;28;20076;-72
2022/08/02 08:46:30;;;;;;;2.88;0.90;;;26.10;77.20;;;;;;5041469;28;20127;-72
2022/08/02 08:49:17;;;;;;;4.57;0.77;;;26.30;77.60;;;;;;5036227;28;20052;-72
2022/08/02 08:51:43;;;;;;;3.53;0.50;;;26.70;73.20;;;;;;5061231;28;20083;-72
2022/08/02 08:54:13;;;;;;;2.92;0.77;;;26.90;72.30;;;;;;5062591;28;20078;-72
2022/08/02 08:56:41;;;;;;;5.18;0.70;;;27.20;70.10;;;;;;5064313;28;20205;-72
2022/08/02 08:59:07;;;;;;;4.03;0.85;;;27.50;69.20;;;;;;5061757;28;20458;-72
2022/08/02 09:01:33;;;;;;;6.07;0.70;;;27.60;66.90;;;;;;5066277;28;20041;-73
2022/08/02 09:03:59;;;;;;;2.95;0.75;;;27.60;65.90;;;;;;5049896;28;20053;-73
2022/08/02 09:06:25;;;;;;;3.30;0.73;;;27.70;66.10;;;;;;5060783;28;20040;-73
2022/08/02 09:08:51;;;;;;;2.92;0.75;;;27.80;64.60;;;;;;5070941;28;20032;-73
2022/08/02 09:11:22;;;;;;;10.07;0.80;;;28.10;64.50;;;;;;5055806;28;20519;-73
2022/08/02 09:13:59;;;;;;;2.53;0.80;;;28.20;63.70;;;;;;5053890;28;20492;-72
2022/08/02 09:16:32;;;;;;;5.60;1.00;;;28.50;63.90;;;;;;5059471;28;20048;-72
2022/08/02 09:18:58;;;;;;;3.53;0.80;;;28.60;62.90;;;;;;5058979;28;20120;-72
2022/08/02 09:21:34;;;;;;;4.80;0.73;;;28.70;62.10;;;;;;5057279;28;20040;-73
2022/08/02 09:24:00;;;;;;;2.63;0.90;;;28.90;59.90;;;;;;5060223;28;20182;-72
2022/08/02 09:26:26;;;;;;;3.65;0.90;;;28.90;61.00;;;;;;5062151;28;20079;-72
2022/08/02 09:28:59;;;;;;;3.05;0.90;;;28.90;60.30;;;;;;5063013;28;20036;-72
2022/08/02 09:31:26;;;;;;;3.75;1.30;;;29.00;61.30;;;;;;5067954;28;20468;-72
2022/08/02 09:33:53;;;;;;;4.25;1.10;;;29.10;60.80;;;;;;5056553;28;20049;-72
2022/08/02 09:36:20;;;;;;;3.85;1.15;;;29.10;58.90;;;;;;5050548;28;20095;-72
2022/08/02 09:39:02;;;;;;;1.88;0.85;;;29.10;58.30;;;;;;5060603;28;20051;-73
2022/08/02 09:41:30;;;;;;;2.85;1.20;;;29.10;59.30;;;;;;5050521;28;20708;-72
2022/08/02 09:43:57;;;;;;;3.33;1.40;;;29.10;60.20;;;;;;5067152;28;20130;-73
2022/08/02 09:46:29;;;;;;;2.53;0.90;;;29.10;60.80;;;;;;5065523;28;20048;-73
2022/08/02 09:49:16;;;;;;;5.75;1.50;;;29.30;61.70;;;;;;5064119;28;20043;-73
2022/08/02 09:51:45;;;;;;;4.18;1.40;;;29.50;58.20;;;;;;5061693;28;20052;-73
2022/08/02 09:54:16;;;;;;;4.80;1.50;;;29.50;60.40;;;;;;5063637;28;20041;-73
2022/08/02 09:56:46;;;;;;;3.35;1.45;;;29.50;60.90;;;;;;5067690;28;20120;-73
2022/08/02 09:59:14;;;;;;;3.55;1.15;;;29.60;60.40;;;;;;5051932;28;20194;-73
2022/08/02 10:01:40;;;;;;;3.20;1.13;;;29.50;59.70;;;;;;5059237;28;20044;-73
2022/08/02 10:04:10;;;;;;;3.90;1.50;;;29.60;60.60;;;;;;5066650;28;20072;-73
2022/08/02 10:06:39;;;;;;;3.63;1.50;;;29.60;60.80;;;;;;5064006;28;20065;-73
2022/08/02 10:09:06;;;;;;;3.45;1.60;;;29.50;62.50;;;;;;5065452;28;20048;-73
2022/08/02 10:11:34;;;;;;;4.93;1.95;;;29.40;62.30;;;;;;5048043;28;20055;-73
2022/08/02 10:14:04;;;;;;;3.60;1.30;;;29.30;62.70;;;;;;5065908;28;20044;-73
2022/08/02 10:16:33;;;;;;;4.45;1.30;;;29.20;62.20;;;;;;5063967;28;20056;-73
2022/08/02 10:19:01;;;;;;;3.28;1.48;;;29.30;63.00;;;;;;5061035;28;20170;-74
2022/08/02 10:21:32;;;;;;;1.90;1.13;;;29.40;64.00;;;;;;5040530;28;20037;-74
2022/08/02 10:24:20;;;;;;;3.90;1.60;;;29.60;64.50;;;;;;5055984;28;20578;-74
2022/08/02 10:26:47;;;;;;;4.50;1.40;;;29.90;64.70;;;;;;5052236;28;20041;-72
2022/08/02 10:29:18;;;;;;;3.22;1.20;;;30.00;63.40;;;;;;5060278;28;20037;-73
2022/08/02 10:31:52;;;;;;;3.63;1.25;;;30.10;64.60;;;;;;5042610;28;20044;-72
2022/08/02 10:34:22;;;;;;;4.53;1.95;;;30.30;64.20;;;;;;5064822;28;20051;-72
2022/08/02 10:36:49;;;;;;;3.90;1.60;;;30.40;62.00;;;;;;5063595;28;20041;-74
2022/08/02 10:39:14;;;;;;;4.97;1.90;;;30.40;61.60;;;;;;5062164;28;20040;-74
2022/08/02 10:41:45;;;;;;;2.95;1.70;;;30.40;61.20;;;;;;5063528;28;20056;-73
2022/08/02 10:44:27;;;;;;;3.63;1.73;;;30.50;59.80;;;;;;5038603;28;20084;-73
2022/08/02 10:47:21;;;;;;;2.20;1.10;;;30.60;62.20;;;;;;5060645;28;20043;-74
2022/08/02 10:49:47;;;;;;;2.47;1.17;;;31.00;62.60;;;;;;5064395;28;20080;-74
2022/08/02 10:52:13;;;;;;;2.63;1.48;;;31.30;61.80;;;;;;5047846;28;20462;-75
2022/08/02 10:54:42;;;;;;;4.20;1.30;;;31.50;59.00;;;;;;5049153;28;20124;-74
2022/08/02 10:57:15;;;;;;;2.97;1.33;;;31.50;59.00;;;;;;5054167;28;20127;-74
2022/08/02 10:59:41;;;;;;;;;;;31.60;57.30;;;;;;5062881;28;20040;-75
2022/08/02 11:02:07;;;;;;;1.95;0.98;;;31.50;58.30;;;;;;5065186;28;20426;-74
2022/08/02 11:04:42;;;;;;;2.95;1.00;;;31.50;58.50;;;;;;5059770;28;20045;-73
2022/08/02 11:07:20;;;;;;;3.55;1.30;;;31.60;58.70;;;;;;5062524;28;20554;-74
2022/08/02 11:09:47;;;;;;;3.00;1.40;;;31.70;57.90;;;;;;5067756;28;20037;-73
2022/08/02 11:12:15;;;;;;;1.60;0.98;;;31.70;56.60;;;;;;5058114;28;20575;-74
2022/08/02 11:14:43;;;;;;;5.78;1.60;;;31.80;56.60;;;;;;5053494;28;20098;-74
2022/08/02 11:17:12;;;;;;;2.45;1.13;;;32.00;56.90;;;;;;5059827;28;20036;-77
2022/08/02 11:20:09;;;;;;;5.00;1.20;;;32.10;58.30;;;;;;5063434;28;20561;-74
2022/08/02 11:22:35;;;;;;;3.40;1.58;;;32.30;58.10;;;;;;5051334;28;20059;-73
2022/08/02 11:25:23;;;;;;;4.32;1.40;;;32.20;57.80;;;;;;5061862;28;20112;-74
2022/08/02 11:27:49;;;;;;;1.85;0.90;;;32.30;56.00;;;;;;5064096;28;20037;-74
2022/08/02 11:30:15;;;;;;;1.83;0.93;;;32.20;55.90;;;;;;5065247;28;20036;-74
2022/08/02 11:32:41;;;;;;;2.55;0.77;;;32.20;56.00;;;;;;5062984;28;20036;-74
2022/08/02 11:35:08;;;;;;;2.33;0.85;;;32.10;54.80;;;;;;5063847;28;20399;-73
2022/08/02 11:37:37;;;;;;;4.00;0.90;;;32.20;54.50;;;;;;5058888;28;20409;-73
2022/08/02 11:40:05;;;;;;;2.08;0.77;;;32.10;54.70;;;;;;5065462;28;20139;-73
2022/08/02 11:42:39;;;;;;;3.67;0.82;;;32.00;54.40;;;;;;5061238;28;20349;-73
2022/08/02 11:45:07;;;;;;;2.95;1.20;;;31.90;55.10;;;;;;5047700;28;20110;-73
2022/08/02 11:47:46;;;;;;;3.25;0.90;;;31.90;54.80;;;;;;5063177;28;20516;-73
2022/08/02 11:50:11;;;;;;;2.92;1.10;;;31.90;54.40;;;;;;5061899;28;20088;-73
2022/08/02 11:52:38;;;;;;;1.80;1.05;;;31.90;55.50;;;;;;5063708;28;20179;-73
2022/08/02 11:55:06;;;;;;;3.75;1.55;;;31.90;55.60;;;;;;5058909;28;20069;-73
2022/08/02 11:57:33;;;;;;;3.55;1.30;;;31.90;56.00;;;;;;5057107;28;20044;-73
2022/08/02 11:59:59;;;;;;;5.20;1.33;;;31.80;55.50;;;;;;5059346;28;20037;-73
2022/08/02 12:02:34;;;;;;;2.95;1.35;;;31.80;55.60;;;;;;5057089;28;20047;-73
2022/08/02 12:05:07;;;;;;;3.28;1.75;;;31.90;56.20;;;;;;5046253;28;20057;-73
2022/08/02 12:07:37;;;;;;;2.65;1.25;;;32.00;55.10;;;;;;5046259;28;20067;-73
2022/08/02 12:10:04;;;;;;;2.03;0.80;;;31.90;56.20;;;;;;5060163;28;20131;-74
2022/08/02 12:12:30;;;;;;;2.80;1.13;;;31.90;55.50;;;;;;5061456;28;20032;-74
2022/08/02 12:14:56;;;;;;;3.75;1.40;;;31.90;54.30;;;;;;5062856;28;20123;-74
2022/08/02 12:20:11;;;;;;;1.88;1.40;;;31.60;55.60;;;;;;5056173;28;20056;-73
2022/08/02 12:22:38;;;;;;;2.03;0.98;;;31.50;57.90;;;;;;5056695;28;20097;-74
2022/08/02 12:25:31;;;;;;;4.53;1.48;;;31.50;56.60;;;;;;5052040;28;20045;-73
2022/08/02 12:28:13;;;;;;;2.50;1.00;;;31.50;56.30;;;;;;5056308;28;20045;-73
2022/08/02 12:31:09;;;;;;;6.00;1.77;;;31.70;55.90;;;;;;5056681;28;20032;-73
2022/08/02 12:33:53;;;;;;;3.28;1.52;;;32.00;57.40;;;;;;5048072;28;20511;-73
2022/08/02 12:36:20;;;;;;;2.60;1.30;;;32.10;57.60;;;;;;5062211;28;20119;-73
2022/08/02 12:39:00;;;;;;;1.73;0.93;;;32.00;55.40;;;;;;5061964;28;20032;-73
2022/08/02 12:41:28;;;;;;;3.00;1.25;;;31.70;55.90;;;;;;5059504;28;20120;-73
2022/08/02 12:43:54;;;;;;;2.50;1.33;;;31.40;56.00;;;;;;5057964;28;20044;-74
2022/08/02 12:46:23;;;;;;;1.98;1.00;;;31.00;56.20;;;;;;5057466;28;20111;-74
2022/08/02 12:48:49;;;;;;;3.05;1.20;;;30.60;56.80;;;;;;5049343;28;20041;-74
2022/08/02 12:51:29;;;;;;;2.22;0.88;;;30.20;58.30;;;;;;5056162;28;20053;-74
2022/08/02 12:54:12;;;;;;;3.65;1.40;;;29.80;58.90;;;;;;5057465;28;20048;-73
2022/08/02 12:56:38;;;;;;;1.83;1.20;;;29.60;59.20;;;;;;5062320;28;20067;-73
2022/08/02 12:59:04;;;;;;;7.20;2.03;;;29.30;59.60;;;;;;5060599;28;20044;-73
2022/08/02 13:01:31;;;;;;;3.20;1.83;;;29.00;59.50;;;;;;5050422;28;20135;-73